Time;durP1;ratioP1;P1;durP2;ratioP2;P2;SDS_P1;SDS_P2;PMS_P1;PMS_P2;Temp;Humidity;BMP_temperature;BMP_pressure;BME280_temperature;BME280_humidity;BME280_pressure;Samples;Min_cycle;Max_cycle;Signal;HPM_P1;HPM_P2
2021/05/16 00:34:14;;;;;;;4.37;2.65;;;;;;;17.91;58.51;99408.34;5342267;26;20079;-87
2021/05/16 03:17:05;;;;;;;1.10;0.95;;;;;;;16.92;59.95;99450.38;5361885;26;20492;-84
2021/05/16 03:19:52;;;;;;;3.17;1.50;;;;;;;16.86;59.87;99458.63;5365072;26;20072;-83
2021/05/16 03:22:19;;;;;;;2.03;0.93;;;;;;;16.75;60.08;99459.09;5364869;26;20064;-84
2021/05/16 03:24:47;;;;;;;3.00;1.00;;;;;;;16.92;59.57;99456.53;5365127;26;20049;-84
2021/05/16 04:26:17;;;;;;;2.90;1.05;;;;;;;17.54;60.31;99509.38;5333936;26;20173;-81
2021/05/16 04:28:44;;;;;;;0.80;0.70;;;;;;;17.33;61.06;99501.50;5342909;26;20086;-80
2021/05/16 04:31:11;;;;;;;1.87;0.93;;;;;;;17.51;60.18;99506.88;5340797;26;20099;-80
2021/05/16 04:33:38;;;;;;;1.52;0.80;;;;;;;17.51;60.64;99509.53;5364680;26;20061;-81
2021/05/16 04:36:04;;;;;;;1.62;1.20;;;;;;;17.61;60.19;99508.13;5344938;26;20064;-82
2021/05/16 04:38:31;;;;;;;2.97;0.90;;;;;;;17.47;60.88;99514.09;5364896;26;20131;-81
2021/05/16 04:40:58;;;;;;;2.33;0.90;;;;;;;17.55;60.74;99516.41;5364652;26;20048;-80
2021/05/16 04:43:25;;;;;;;2.75;1.30;;;;;;;17.52;61.63;99516.53;5364845;26;20079;-81
2021/05/16 04:45:52;;;;;;;4.65;1.20;;;;;;;17.54;61.44;99510.22;5364535;26;20071;-80
2021/05/16 04:48:19;;;;;;;3.70;1.45;;;;;;;17.46;61.20;99518.56;5364833;26;20087;-81
2021/05/16 04:50:45;;;;;;;1.70;1.12;;;;;;;17.47;61.61;99525.59;5364783;26;20171;-82
2021/05/16 04:53:12;;;;;;;2.65;1.27;;;;;;;17.45;61.90;99521.31;5364701;26;20091;-83
2021/05/16 04:55:39;;;;;;;2.90;1.10;;;;;;;17.62;61.61;99525.81;5364765;26;20104;-82
2021/05/16 04:58:07;;;;;;;4.82;1.45;;;;;;;17.51;61.44;99528.97;5364643;26;20064;-81
2021/05/16 05:00:34;;;;;;;1.40;0.90;;;;;;;17.54;62.39;99527.97;5344689;26;20143;-81
2021/05/16 05:25:43;;;;;;;3.15;1.25;;;;;;;17.76;62.30;99535.72;5336021;26;20422;-81
2021/05/16 05:28:11;;;;;;;4.55;1.48;;;;;;;17.81;61.85;99537.25;5342180;26;20060;-81
2021/05/16 05:30:38;;;;;;;3.40;1.58;;;;;;;17.85;62.12;99541.50;5364571;26;20105;-81
2021/05/16 05:33:05;;;;;;;3.20;1.48;;;;;;;17.59;64.06;99540.09;5364713;26;20116;-81
2021/05/16 05:35:32;;;;;;;3.60;1.70;;;;;;;17.61;62.43;99542.66;5344814;26;20126;-82
2021/05/16 05:37:59;;;;;;;3.00;1.60;;;;;;;17.64;64.23;99551.34;5344778;26;20060;-82
2021/05/16 05:40:26;;;;;;;3.95;1.50;;;;;;;17.78;64.07;99541.88;5344531;26;20121;-81
2021/05/16 05:42:53;;;;;;;2.60;1.80;;;;;;;17.58;64.53;99541.00;5364823;26;20052;-82
2021/05/16 05:45:20;;;;;;;3.78;1.40;;;;;;;17.80;64.36;99554.16;5364858;26;20426;-82
2021/05/16 05:47:47;;;;;;;2.47;1.23;;;;;;;17.70;64.69;99553.69;5364769;26;20071;-81
2021/05/16 05:50:14;;;;;;;2.40;1.37;;;;;;;17.60;63.03;99549.78;5364503;26;20060;-82
2021/05/16 05:52:41;;;;;;;2.00;1.35;;;;;;;17.44;64.14;99549.66;5344798;26;20121;-82
2021/05/16 05:55:08;;;;;;;4.05;1.60;;;;;;;17.69;62.96;99549.31;5344580;26;20056;-81
2021/05/16 05:57:35;;;;;;;1.87;1.20;;;;;;;17.63;64.09;99549.63;5344613;26;20065;-82
2021/05/16 06:00:04;;;;;;;2.95;2.00;;;;;;;17.66;64.65;99552.13;5364465;26;20371;-82
2021/05/16 06:02:31;;;;;;;2.57;1.20;;;;;;;17.61;65.22;99550.63;5365054;26;20067;-82
2021/05/16 06:04:58;;;;;;;3.20;1.50;;;;;;;17.75;64.34;99553.47;5364413;26;20208;-81
2021/05/16 06:07:25;;;;;;;3.72;1.77;;;;;;;17.25;66.42;99572.69;5364413;26;20682;-81
2021/05/16 06:09:51;;;;;;;3.30;1.80;;;;;;;17.09;65.03;99571.66;5364620;26;20421;-82
2021/05/16 06:12:18;;;;;;;2.65;1.77;;;;;;;16.02;70.23;99585.09;5364676;26;20087;-81
2021/05/16 06:14:48;;;;;;;2.40;1.12;;;;;;;16.92;67.17;99583.91;5364430;26;20600;-82
2021/05/16 06:17:14;;;;;;;;;;;;;;;16.83;66.56;99580.81;5364998;26;20538;-82
2021/05/16 06:19:41;;;;;;;3.50;2.12;;;;;;;16.35;65.83;99594.31;5364842;26;20005;-81
2021/05/16 06:22:13;;;;;;;2.92;1.30;;;;;;;16.09;66.66;99595.38;5364853;26;20067;-81
2021/05/16 06:24:41;;;;;;;1.40;1.17;;;;;;;15.85;67.83;99596.37;5364193;26;20112;-82
2021/05/16 06:27:07;;;;;;;1.98;0.90;;;;;;;15.93;67.46;99598.72;5364459;26;20095;-82
2021/05/16 06:29:34;;;;;;;1.20;0.90;;;;;;;16.30;66.34;99603.38;5364333;26;20074;-82
2021/05/16 06:32:02;;;;;;;1.95;1.12;;;;;;;16.67;65.34;99607.94;5364536;26;20101;-82
2021/05/16 06:34:29;;;;;;;2.15;1.25;;;;;;;16.75;66.00;99602.31;5364475;26;20127;-82
2021/05/16 06:36:56;;;;;;;1.90;1.12;;;;;;;16.85;65.67;99603.66;5344195;26;20067;-82
2021/05/16 07:31:26;;;;;;;4.37;0.65;;;;;;;17.99;61.10;99627.66;5313194;26;20096;-82
2021/05/16 08:03:46;;;;;;;3.97;2.10;;;;;;;16.97;61.82;99650.03;5342038;26;20139;-82
2021/05/16 08:06:14;;;;;;;1.83;0.85;;;;;;;17.54;60.26;99648.34;5340740;26;20176;-82
2021/05/16 08:08:41;;;;;;;4.30;1.60;;;;;;;17.86;58.86;99653.97;5342428;26;20466;-83
2021/05/16 08:11:08;;;;;;;1.92;0.50;;;;;;;17.70;58.42;99659.09;5340775;26;20080;-83
2021/05/16 08:13:35;;;;;;;1.37;0.60;;;;;;;17.32;56.02;99656.41;5342399;26;20124;-83
2021/05/16 08:16:02;;;;;;;0.65;0.22;;;;;;;18.05;55.21;99651.28;5342319;26;20367;-83
2021/05/16 08:18:29;;;;;;;0.55;0.32;;;;;;;17.73;55.62;99648.31;5342251;26;20438;-83
2021/05/16 08:20:56;;;;;;;0.82;0.52;;;;;;;16.92;59.17;99655.53;5342093;26;20086;-83
2021/05/16 08:23:23;;;;;;;2.92;0.90;;;;;;;17.40;56.86;99656.94;5342289;26;20402;-82
2021/05/16 08:25:50;;;;;;;2.90;0.60;;;;;;;18.20;56.28;99647.88;5340831;26;20404;-84
2021/05/16 08:28:17;;;;;;;1.05;0.20;;;;;;;17.12;56.45;99661.75;5342276;26;20187;-84
2021/05/16 08:30:46;;;;;;;0.30;0.20;;;;;;;17.58;56.73;99665.84;5341023;26;20080;-83
2021/05/16 08:33:13;;;;;;;0.40;0.10;;;;;;;18.21;53.71;99662.91;5342167;26;20076;-83
2021/05/16 08:35:40;;;;;;;0.22;0.20;;;;;;;18.95;50.50;99665.41;5342237;26;20580;-84
2021/05/16 09:53:20;;;;;;;5.57;0.93;;;;;;;24.66;38.84;99698.88;5338062;26;20065;-85
2021/05/16 09:55:47;;;;;;;0.20;0.10;;;;;;;25.27;37.13;99698.72;5364075;26;20205;-84
2021/05/16 09:58:14;;;;;;;0.50;0.30;;;;;;;24.41;36.48;99691.75;5365137;26;20044;-85
2021/05/16 10:00:41;;;;;;;0.40;0.20;;;;;;;24.05;37.42;99701.53;5364347;26;20170;-85
2021/05/16 10:57:19;;;;;;;0.90;0.32;;;;;;;26.27;29.71;99662.00;5387544;26;20071;-84
2021/05/16 11:00:43;;;;;;;2.60;0.70;;;;;;;26.31;31.67;99660.75;5386757;26;20097;-84
2021/05/16 11:03:12;;;;;;;1.25;0.25;;;;;;;26.00;30.52;99641.75;5386823;26;20059;-84
2021/05/16 11:08:32;;;;;;;1.00;0.20;;;;;;;25.67;29.92;99652.50;5386869;26;20083;-84
2021/05/16 11:11:01;;;;;;;0.82;0.10;;;;;;;25.71;29.93;99654.00;5366515;26;20105;-84
2021/05/16 11:13:31;;;;;;;1.27;0.20;;;;;;;25.90;29.94;99651.53;5386880;26;20056;-85
2021/05/16 11:16:07;;;;;;;0.73;0.20;;;;;;;26.41;31.87;99648.22;5387315;26;20425;-84
2021/05/16 11:18:35;;;;;;;2.42;0.10;;;;;;;27.24;32.70;99633.13;5386803;26;20048;-86
2021/05/16 11:21:05;;;;;;;0.10;0.03;;;;;;;28.01;32.60;99627.16;5386573;26;20365;-85
2021/05/16 11:23:40;;;;;;;2.12;0.20;;;;;;;27.02;28.12;99620.63;5386759;26;20465;-84
2021/05/16 11:26:12;;;;;;;1.75;0.45;;;;;;;27.42;28.38;99624.41;5386638;26;20048;-83
2021/05/16 11:28:45;;;;;;;0.50;0.10;;;;;;;27.32;28.17;99629.75;5386925;26;20104;-86
2021/05/16 11:31:17;;;;;;;0.73;0.10;;;;;;;27.15;28.27;99625.84;5387592;26;20056;-83
2021/05/16 11:33:47;;;;;;;0.80;0.10;;;;;;;27.38;29.50;99629.19;5387555;26;20075;-83
2021/05/16 11:36:17;;;;;;;0.62;0.20;;;;;;;27.35;29.26;99635.72;5387706;26;20845;-84
2021/05/16 11:38:47;;;;;;;0.65;0.30;;;;;;;26.80;27.99;99632.41;5387781;26;20056;-85
2021/05/16 11:41:39;;;;;;;1.92;0.22;;;;;;;26.84;27.94;99619.50;5388156;26;20080;-84
2021/05/16 11:44:08;;;;;;;0.30;0.20;;;;;;;26.95;29.08;99619.44;5387624;26;20110;-83
2021/05/16 11:46:41;;;;;;;;;;;;;;;26.68;29.54;99622.69;5388001;26;20086;-85
2021/05/16 11:49:10;;;;;;;1.75;0.55;;;;;;;27.25;28.46;99618.66;5387645;26;19979;-84
2021/05/16 11:51:37;;;;;;;;;;;;;;;26.77;28.81;99626.41;5387786;26;20084;-83
2021/05/16 11:54:12;;;;;;;2.05;0.60;;;;;;;26.50;30.82;99631.34;5387534;26;19990;-83
2021/05/16 11:56:45;;;;;;;1.27;0.40;;;;;;;26.71;30.02;99625.09;5366786;26;20056;-83
2021/05/16 11:59:13;;;;;;;0.50;0.15;;;;;;;25.52;32.27;99627.69;5387360;26;20371;-83
2021/05/16 12:29:42;;;;;;;0.52;0.13;;;;;;;31.08;27.25;99589.22;5360635;26;20056;-85
2021/05/16 12:32:19;;;;;;;1.55;0.20;;;;;;;31.53;24.74;99590.00;5387444;26;20437;-85
2021/05/16 12:34:46;;;;;;;1.33;0.20;;;;;;;31.35;25.90;99590.94;5367011;26;20060;-86
2021/05/16 12:37:16;;;;;;;0.00;0.00;;;;;;;31.14;25.97;99579.59;5387336;26;20056;-86
2021/05/16 12:39:48;;;;;;;1.02;0.30;;;;;;;29.79;25.76;99582.47;5366723;26;20119;-84
2021/05/16 12:42:34;;;;;;;0.28;0.10;;;;;;;29.88;27.12;99581.56;5387181;26;20122;-84
2021/05/16 12:45:23;;;;;;;2.95;0.20;;;;;;;29.72;26.06;99578.69;5387161;26;20387;-84
2021/05/16 12:48:05;;;;;;;1.37;0.20;;;;;;;29.80;25.37;99579.63;5387493;26;20417;-85
2021/05/16 12:50:51;;;;;;;0.62;0.20;;;;;;;29.20;25.32;99579.16;5387442;26;20051;-85
2021/05/16 12:53:23;;;;;;;1.70;0.60;;;;;;;29.07;26.15;99570.56;5366974;26;20083;-84
2021/05/16 12:55:56;;;;;;;0.55;0.10;;;;;;;26.91;28.76;99574.84;5387234;26;20076;-84
2021/05/16 12:58:38;;;;;;;0.95;0.20;;;;;;;27.55;29.52;99571.06;5387241;26;21011;-86
2021/05/16 13:01:05;;;;;;;1.20;0.40;;;;;;;27.18;29.09;99567.09;5387392;26;20055;-84
2021/05/16 13:03:33;;;;;;;0.20;0.05;;;;;;;27.62;29.94;99564.13;5387242;26;20052;-84
2021/05/16 13:06:03;;;;;;;0.60;0.10;;;;;;;28.06;30.86;99561.94;5387388;26;20126;-84
2021/05/16 13:08:31;;;;;;;;;;;;;;;28.78;29.37;99565.19;5387547;26;20071;-83
2021/05/16 13:10:58;;;;;;;0.45;0.13;;;;;;;29.15;27.66;99557.13;5387120;26;19963;-84
2021/05/16 13:13:38;;;;;;;0.95;0.20;;;;;;;29.42;25.27;99561.72;5387157;26;20056;-84
2021/05/16 13:16:08;;;;;;;0.55;0.20;;;;;;;26.05;29.32;99556.06;5387249;26;20062;-84
2021/05/16 13:18:52;;;;;;;1.17;0.10;;;;;;;24.74;32.04;99562.16;5387133;26;20074;-84
2021/05/16 13:21:18;;;;;;;0.40;0.20;;;;;;;25.23;31.87;99554.75;5386902;26;20618;-84
2021/05/16 13:23:48;;;;;;;0.30;0.20;;;;;;;26.15;32.40;99549.91;5387243;26;20172;-85
2021/05/16 13:26:15;;;;;;;;;;;;;;;26.28;28.05;99547.91;5387592;26;20457;-84
2021/05/16 13:28:42;;;;;;;0.65;0.20;;;;;;;26.92;32.17;99542.41;5387167;26;19970;-84
2021/05/16 13:31:10;;;;;;;0.95;0.20;;;;;;;27.46;29.03;99540.34;5366944;26;20108;-84
2021/05/16 13:33:39;;;;;;;0.60;0.30;;;;;;;27.75;29.09;99543.13;5387196;26;20104;-86
2021/05/16 13:36:08;;;;;;;0.10;0.10;;;;;;;28.52;27.88;99538.78;5387181;26;20059;-84
2021/05/16 13:38:35;;;;;;;2.42;0.52;;;;;;;29.06;26.38;99547.19;5387148;26;20102;-84
2021/05/16 13:41:05;;;;;;;0.10;0.10;;;;;;;29.44;27.54;99538.03;5386991;26;20409;-84
2021/05/16 13:43:33;;;;;;;0.62;0.17;;;;;;;29.56;27.17;99542.28;5386913;26;20154;-84
2021/05/16 13:46:01;;;;;;;0.90;0.10;;;;;;;29.97;25.67;99550.84;5387258;26;20060;-84
2021/05/16 13:48:28;;;;;;;0.95;0.10;;;;;;;30.57;24.05;99546.66;5367095;26;20064;-84
2021/05/16 13:50:55;;;;;;;0.82;0.20;;;;;;;30.47;24.06;99553.03;5366817;26;20082;-84
2021/05/16 13:53:22;;;;;;;2.92;0.20;;;;;;;29.64;25.85;99547.78;5386498;26;20104;-87
2021/05/16 13:55:49;;;;;;;0.98;0.20;;;;;;;29.76;24.92;99547.59;5366792;26;20452;-84
2021/05/16 13:58:16;;;;;;;1.48;0.10;;;;;;;30.04;24.50;99540.25;5387180;26;20463;-84
2021/05/16 14:00:43;;;;;;;2.00;0.20;;;;;;;30.14;23.40;99532.91;5386956;26;20138;-84
2021/05/16 14:03:10;;;;;;;0.40;0.20;;;;;;;30.50;24.23;99528.34;5366825;26;20301;-84
2021/05/16 14:05:37;;;;;;;0.68;0.15;;;;;;;30.43;24.14;99537.25;5387033;26;20181;-84
2021/05/16 14:08:04;;;;;;;0.37;0.10;;;;;;;30.80;23.74;99531.62;5387091;26;20316;-85
2021/05/16 14:10:31;;;;;;;0.47;0.10;;;;;;;30.82;24.93;99532.28;5386998;26;20066;-84
2021/05/16 14:12:58;;;;;;;0.82;0.22;;;;;;;29.45;24.74;99537.06;5387099;26;20064;-84
2021/05/16 14:15:25;;;;;;;0.77;0.20;;;;;;;29.39;28.56;99533.09;5366693;26;20191;-84
2021/05/16 14:17:52;;;;;;;1.40;0.10;;;;;;;29.65;26.79;99527.84;5387144;26;20402;-84
2021/05/16 14:20:19;;;;;;;0.47;0.22;;;;;;;30.19;24.71;99532.44;5386853;26;20048;-84
2021/05/16 14:22:46;;;;;;;1.25;0.20;;;;;;;29.26;25.03;99531.75;5386817;26;20114;-86
2021/05/16 14:25:13;;;;;;;0.90;0.10;;;;;;;29.57;25.65;99527.72;5386836;26;20112;-83
2021/05/16 14:27:39;;;;;;;0.22;0.20;;;;;;;30.17;23.46;99532.59;5366659;26;20059;-84
2021/05/16 14:30:09;;;;;;;2.78;0.20;;;;;;;30.51;24.46;99542.72;5366331;26;20179;-86
2021/05/16 14:32:36;;;;;;;;;;;;;;;30.53;23.78;99536.16;5387266;26;20425;-85
2021/05/16 14:35:05;;;;;;;1.15;0.10;;;;;;;30.43;22.78;99527.25;5387225;26;19966;-84
2021/05/16 14:37:32;;;;;;;0.50;0.20;;;;;;;29.81;23.76;99521.75;5386988;26;20055;-84
2021/05/16 14:39:59;;;;;;;0.50;0.13;;;;;;;29.90;23.26;99519.97;5386937;26;20060;-84
2021/05/16 14:42:27;;;;;;;0.90;0.13;;;;;;;29.52;25.97;99516.50;5386885;26;20048;-84
2021/05/16 14:44:54;;;;;;;1.92;0.40;;;;;;;28.16;26.21;99527.69;5386727;26;20060;-85
2021/05/16 14:47:20;;;;;;;0.50;0.20;;;;;;;27.25;26.64;99521.56;5366698;26;20103;-84
2021/05/16 14:49:47;;;;;;;0.15;0.10;;;;;;;27.05;29.78;99503.56;5386925;26;20114;-84
2021/05/16 14:52:14;;;;;;;0.08;0.08;;;;;;;27.74;29.09;99506.34;5386987;26;20108;-83
2021/05/16 14:54:41;;;;;;;0.30;0.10;;;;;;;28.11;29.00;99500.25;5386936;26;20118;-86
2021/05/16 14:57:08;;;;;;;0.73;0.22;;;;;;;28.34;27.87;99500.81;5386650;26;20102;-84
2021/05/16 14:59:35;;;;;;;0.50;0.10;;;;;;;28.00;27.87;99498.56;5386803;26;20055;-84
2021/05/16 15:02:02;;;;;;;2.37;0.10;;;;;;;27.16;28.04;99490.87;5386674;26;20040;-83
2021/05/16 15:04:30;;;;;;;0.93;0.10;;;;;;;27.64;27.76;99487.41;5387501;26;20056;-86
2021/05/16 15:06:57;;;;;;;0.20;0.08;;;;;;;27.66;28.19;99481.06;5387903;26;20074;-83
2021/05/16 15:09:25;;;;;;;0.60;0.10;;;;;;;27.90;28.45;99467.16;5387751;26;20075;-83
2021/05/16 15:11:53;;;;;;;1.00;0.10;;;;;;;28.14;27.77;99461.31;5387621;26;20325;-83
2021/05/16 15:14:20;;;;;;;0.22;0.10;;;;;;;27.56;28.39;99460.31;5387603;26;20090;-83
2021/05/16 15:16:47;;;;;;;0.10;0.10;;;;;;;27.85;27.71;99465.75;5387713;26;20075;-85
2021/05/16 15:42:09;;;;;;;0.52;0.10;;;;;;;26.81;29.47;99450.84;5346445;26;20379;-85
2021/05/16 15:44:36;;;;;;;2.05;0.80;;;;;;;26.87;28.88;99454.84;5364949;26;20418;-84
2021/05/16 15:47:03;;;;;;;1.98;0.25;;;;;;;26.83;29.40;99454.28;5364764;26;20083;-83
2021/05/16 15:49:31;;;;;;;0.30;0.10;;;;;;;27.05;29.38;99455.91;5364983;26;20078;-83
2021/05/16 15:51:58;;;;;;;0.55;0.10;;;;;;;26.83;29.25;99456.12;5364770;26;20088;-84
2021/05/16 15:54:25;;;;;;;0.10;0.10;;;;;;;26.96;29.52;99451.31;5364921;26;20120;-83
2021/05/16 15:56:51;;;;;;;1.65;0.20;;;;;;;26.37;30.38;99444.78;5364919;26;20407;-83
2021/05/16 15:59:18;;;;;;;1.05;0.10;;;;;;;26.28;30.25;99451.81;5365010;26;20056;-83
2021/05/16 16:01:45;;;;;;;1.40;0.10;;;;;;;25.73;31.50;99451.09;5364849;26;20057;-83
2021/05/16 16:04:14;;;;;;;0.20;0.05;;;;;;;24.67;34.77;99451.63;5365139;26;20592;-85
2021/05/16 16:06:41;;;;;;;1.42;0.10;;;;;;;24.26;32.92;99452.16;5364761;26;20496;-84
2021/05/16 16:09:08;;;;;;;1.45;0.10;;;;;;;23.23;35.26;99450.97;5364990;26;20100;-82
2021/05/16 16:11:35;;;;;;;1.58;0.10;;;;;;;24.16;32.54;99451.19;5365074;26;20748;-83
2021/05/16 16:14:02;;;;;;;0.65;0.10;;;;;;;24.30;34.99;99444.75;5364909;26;20055;-82
2021/05/16 16:16:29;;;;;;;0.17;0.10;;;;;;;24.15;33.91;99446.75;5364301;26;20074;-82
2021/05/16 16:18:56;;;;;;;0.68;0.20;;;;;;;23.54;35.01;99441.53;5364860;26;20095;-85
2021/05/16 16:21:23;;;;;;;1.55;0.15;;;;;;;23.99;35.50;99445.25;5364875;26;20384;-83
2021/05/16 16:23:50;;;;;;;0.10;0.00;;;;;;;24.36;34.41;99441.59;5344868;26;20116;-83
2021/05/16 16:26:17;;;;;;;0.00;0.00;;;;;;;24.59;33.73;99434.41;5364777;26;20059;-83
2021/05/16 16:28:43;;;;;;;1.30;0.20;;;;;;;24.86;32.99;99434.91;5365028;26;20057;-84
2021/05/16 16:31:10;;;;;;;0.70;0.10;;;;;;;25.20;32.63;99442.09;5364845;26;20111;-83
2021/05/16 16:33:37;;;;;;;0.85;0.20;;;;;;;25.27;32.85;99436.09;5364636;26;20094;-83
2021/05/16 16:36:04;;;;;;;0.10;0.10;;;;;;;24.85;32.45;99427.81;5364854;26;20052;-82
2021/05/16 16:38:33;;;;;;;0.95;0.13;;;;;;;25.14;32.43;99421.94;5364816;26;20079;-83
2021/05/16 16:41:00;;;;;;;1.20;0.10;;;;;;;25.37;32.29;99423.59;5344651;26;20064;-83
2021/05/16 16:43:27;;;;;;;1.52;0.08;;;;;;;24.88;32.23;99427.59;5364546;26;20066;-83
2021/05/16 16:45:54;;;;;;;0.20;0.10;;;;;;;25.42;31.50;99430.44;5344829;26;20053;-83
2021/05/16 16:48:21;;;;;;;0.98;0.20;;;;;;;25.48;32.20;99422.72;5364633;26;20060;-84
2021/05/16 16:50:47;;;;;;;1.35;0.20;;;;;;;25.41;31.95;99418.81;5364878;26;20104;-85
2021/05/16 16:53:14;;;;;;;0.32;0.10;;;;;;;24.98;33.16;99419.63;5364819;26;20119;-82
2021/05/16 16:55:41;;;;;;;2.00;0.15;;;;;;;24.64;33.40;99416.09;5364805;26;20112;-84
2021/05/16 16:58:08;;;;;;;2.67;0.17;;;;;;;25.00;33.37;99412.31;5364639;26;20087;-83
2021/05/16 17:00:35;;;;;;;1.65;0.10;;;;;;;25.01;33.64;99413.16;5364903;26;20060;-83
2021/05/16 17:03:03;;;;;;;0.05;0.05;;;;;;;25.02;34.05;99407.63;5364376;26;20089;-83
2021/05/16 17:05:30;;;;;;;0.30;0.10;;;;;;;24.93;34.51;99413.75;5364626;26;20632;-83
2021/05/16 17:07:56;;;;;;;0.93;0.08;;;;;;;25.01;34.20;99414.00;5364485;26;20452;-82
2021/05/16 17:10:23;;;;;;;0.20;0.10;;;;;;;24.82;34.90;99408.41;5364635;26;20084;-83
2021/05/16 17:12:52;;;;;;;0.55;0.15;;;;;;;23.48;37.35;99420.53;5344541;26;20056;-83
2021/05/16 17:15:19;;;;;;;0.32;0.10;;;;;;;23.80;36.07;99410.97;5364822;26;20048;-82
2021/05/16 17:17:45;;;;;;;0.90;0.10;;;;;;;23.08;37.74;99415.44;5364585;26;20060;-82
2021/05/16 17:20:13;;;;;;;1.00;0.43;;;;;;;22.81;38.44;99424.47;5344608;26;20099;-83
2021/05/16 17:22:40;;;;;;;0.70;0.20;;;;;;;23.08;38.89;99421.66;5344093;26;20131;-83
2021/05/16 17:25:08;;;;;;;2.20;0.20;;;;;;;22.58;39.62;99434.16;5364812;26;20504;-82
2021/05/16 17:27:35;;;;;;;4.35;0.30;;;;;;;22.35;39.98;99432.22;5364496;26;20067;-82
2021/05/16 17:30:02;;;;;;;0.95;0.20;;;;;;;22.33;40.41;99429.69;5344491;26;20061;-83
2021/05/16 17:32:29;;;;;;;0.65;0.25;;;;;;;22.75;39.89;99427.59;5344288;26;20070;-84
2021/05/16 17:34:56;;;;;;;2.28;0.35;;;;;;;22.98;39.20;99436.69;5364524;26;20116;-82
2021/05/16 17:37:23;;;;;;;0.62;0.15;;;;;;;23.01;39.01;99425.75;5344569;26;20106;-82
2021/05/16 17:39:49;;;;;;;1.95;0.30;;;;;;;23.23;38.52;99435.75;5364700;26;20456;-83
2021/05/16 17:42:16;;;;;;;3.75;0.30;;;;;;;23.28;38.60;99430.91;5364241;26;20060;-83
2021/05/16 17:44:43;;;;;;;0.73;0.30;;;;;;;23.49;38.50;99433.81;5364352;26;20082;-82
2021/05/16 17:47:10;;;;;;;2.25;0.25;;;;;;;23.66;38.04;99432.56;5364196;26;20343;-82
2021/05/16 17:49:37;;;;;;;2.12;0.52;;;;;;;23.64;38.41;99431.81;5364421;26;20124;-82
2021/05/16 17:52:04;;;;;;;1.83;0.43;;;;;;;23.62;38.95;99428.41;5344479;26;20070;-82
2021/05/16 17:54:31;;;;;;;0.65;0.30;;;;;;;23.23;39.33;99427.72;5364379;26;20569;-82
2021/05/16 17:56:58;;;;;;;1.52;0.75;;;;;;;23.12;40.04;99422.31;5344292;26;20127;-82
2021/05/16 17:59:25;;;;;;;1.27;0.60;;;;;;;23.37;39.66;99423.16;5364459;26;20061;-83
2021/05/16 18:01:54;;;;;;;0.95;0.40;;;;;;;23.44;39.72;99421.72;5344195;26;20052;-82
2021/05/16 18:04:22;;;;;;;1.05;0.30;;;;;;;23.15;40.52;99427.44;5364285;26;20107;-82
2021/05/16 18:06:51;;;;;;;2.15;0.40;;;;;;;22.95;40.83;99417.31;5364340;26;20506;-81
2021/05/16 18:09:19;;;;;;;0.85;0.70;;;;;;;22.65;41.65;99421.22;5364520;26;20128;-82
2021/05/16 18:11:45;;;;;;;0.73;0.40;;;;;;;22.62;41.72;99413.41;5364368;26;20051;-83
2021/05/16 18:14:12;;;;;;;0.90;0.40;;;;;;;22.66;41.26;99407.69;5364382;26;20068;-83
2021/05/16 18:16:41;;;;;;;0.90;0.37;;;;;;;22.16;42.87;99404.06;5364544;26;20072;-82
2021/05/16 18:19:08;;;;;;;0.95;0.47;;;;;;;22.15;42.91;99412.22;5363997;26;20060;-84
2021/05/16 18:21:35;;;;;;;3.47;0.40;;;;;;;22.38;41.95;99406.13;5364160;26;20044;-82
2021/05/16 18:24:04;;;;;;;1.80;0.60;;;;;;;22.32;41.85;99414.56;5364504;26;20088;-82
2021/05/16 18:26:31;;;;;;;2.28;0.40;;;;;;;22.38;41.92;99418.62;5364482;26;20055;-82
2021/05/16 18:28:58;;;;;;;1.37;0.40;;;;;;;21.37;43.60;99417.47;5364373;26;20460;-82
2021/05/16 18:31:27;;;;;;;1.30;0.30;;;;;;;22.21;42.22;99417.16;5364280;26;20083;-82
2021/05/16 18:33:54;;;;;;;0.75;0.40;;;;;;;21.59;43.37;99411.56;5364162;26;20112;-82
2021/05/16 18:36:20;;;;;;;0.70;0.40;;;;;;;21.73;43.28;99412.34;5364473;26;20108;-85
2021/05/16 18:38:47;;;;;;;0.73;0.40;;;;;;;21.07;45.59;99415.84;5364103;26;20070;-82
2021/05/16 18:41:14;;;;;;;0.77;0.50;;;;;;;21.63;43.74;99415.75;5364351;26;20063;-82
2021/05/16 18:43:41;;;;;;;0.43;0.30;;;;;;;21.01;45.67;99422.41;5364130;26;20123;-82
2021/05/16 18:46:08;;;;;;;0.93;0.52;;;;;;;;;;5364550;26;20071;-84
2021/05/16 18:48:36;;;;;;;1.33;0.45;;;;;;;21.37;44.79;99421.00;5364439;26;20087;-82
2021/05/16 18:51:07;;;;;;;2.28;0.55;;;;;;;21.28;45.52;99424.25;5364199;26;20047;-82
2021/05/16 18:53:36;;;;;;;2.08;0.80;;;;;;;20.92;46.65;99422.16;5364396;26;20509;-82
2021/05/16 18:56:07;;;;;;;2.87;0.68;;;;;;;21.04;46.47;99422.22;5344742;26;20339;-84
2021/05/16 18:58:35;;;;;;;4.00;0.63;;;;;;;20.80;46.76;99421.13;5364192;26;20057;-82
2021/05/16 19:01:02;;;;;;;3.17;0.70;;;;;;;20.98;46.79;99413.75;5364546;26;20053;-82
2021/05/16 19:03:29;;;;;;;1.30;0.45;;;;;;;20.04;49.27;99422.22;5364044;26;20048;-82
2021/05/16 19:05:56;;;;;;;1.05;0.45;;;;;;;20.90;46.81;99411.56;5363848;26;20072;-82
2021/05/16 19:08:23;;;;;;;1.67;0.50;;;;;;;20.46;48.68;99414.34;5344045;26;20105;-82
2021/05/16 19:10:50;;;;;;;2.85;0.65;;;;;;;20.71;48.26;99408.38;5364302;26;20053;-83
2021/05/16 19:13:17;;;;;;;2.92;0.70;;;;;;;20.85;47.97;99414.53;5344295;26;20059;-82
2021/05/16 19:15:44;;;;;;;3.08;0.52;;;;;;;20.40;48.74;99418.25;5364369;26;20158;-85
2021/05/16 19:18:11;;;;;;;3.20;0.80;;;;;;;20.81;47.98;99418.34;5364267;26;20056;-82
2021/05/16 19:20:39;;;;;;;2.12;0.60;;;;;;;20.52;49.18;99409.50;5364030;26;20052;-81
2021/05/16 19:23:07;;;;;;;2.45;0.62;;;;;;;20.75;48.62;99416.06;5364084;26;20066;-82
2021/05/16 19:25:34;;;;;;;2.50;0.68;;;;;;;20.90;47.99;99416.91;5364159;26;20060;-82
2021/05/16 19:28:02;;;;;;;2.60;0.50;;;;;;;20.96;47.80;99419.19;5364326;26;20080;-81
2021/05/16 19:30:29;;;;;;;1.80;0.80;;;;;;;21.12;47.22;99419.06;5364145;26;20068;-82
2021/05/16 19:32:56;;;;;;;3.60;1.17;;;;;;;20.82;48.21;99422.75;5364153;26;20477;-82
2021/05/16 19:35:23;;;;;;;1.23;0.90;;;;;;;20.83;47.94;99418.25;5364536;26;20105;-82
2021/05/16 19:37:50;;;;;;;2.40;0.60;;;;;;;20.98;47.77;99417.28;5364208;26;20347;-81
2021/05/16 19:40:19;;;;;;;1.70;0.65;;;;;;;20.72;47.44;99416.25;5364190;26;20052;-82
2021/05/16 19:42:46;;;;;;;1.60;0.87;;;;;;;20.84;46.70;99414.63;5363921;26;20048;-82
2021/05/16 19:45:13;;;;;;;1.27;0.70;;;;;;;21.10;46.14;99424.50;5363942;26;20060;-84
2021/05/16 19:47:40;;;;;;;1.52;0.40;;;;;;;21.23;45.69;99429.03;5364261;26;20462;-83
2021/05/16 19:50:08;;;;;;;2.25;0.70;;;;;;;21.25;46.32;99424.47;5364346;26;20083;-82
2021/05/16 19:52:35;;;;;;;1.95;0.70;;;;;;;21.05;47.65;99421.25;5365220;26;20051;-81
2021/05/16 19:55:05;;;;;;;2.05;0.88;;;;;;;21.18;46.15;99428.47;5365118;26;20074;-82
2021/05/16 19:57:32;;;;;;;1.52;0.80;;;;;;;21.22;46.35;99424.66;5365058;26;20080;-81
2021/05/16 19:59:59;;;;;;;3.40;0.80;;;;;;;21.27;46.57;99417.22;5344932;26;20460;-82
2021/05/16 20:02:26;;;;;;;1.37;0.68;;;;;;;21.17;47.58;99421.41;5365049;26;20072;-82
2021/05/16 20:04:53;;;;;;;2.12;0.98;;;;;;;20.94;47.47;99426.44;5364927;26;20080;-82
2021/05/16 20:07:20;;;;;;;1.73;0.68;;;;;;;20.82;48.13;99421.87;5364982;26;20068;-81
2021/05/16 20:09:46;;;;;;;3.22;0.98;;;;;;;21.00;46.68;99418.03;5365044;26;20066;-82
2021/05/16 20:12:13;;;;;;;1.70;1.00;;;;;;;20.93;47.09;99416.72;5345150;26;20115;-85
2021/05/16 20:14:40;;;;;;;1.48;0.95;;;;;;;21.01;46.60;99416.22;5364996;26;20055;-81
2021/05/16 20:17:07;;;;;;;1.12;0.70;;;;;;;21.14;46.19;99418.94;5365072;26;20060;-82
2021/05/16 20:19:34;;;;;;;2.28;0.90;;;;;;;21.06;46.78;99423.00;5344846;26;20055;-86
2021/05/16 20:22:01;;;;;;;2.50;0.90;;;;;;;20.61;49.91;99418.75;5364715;26;20109;-81
2021/05/16 20:24:28;;;;;;;2.15;0.95;;;;;;;20.83;49.17;99412.94;5364858;26;20115;-82
2021/05/16 20:26:56;;;;;;;3.87;0.98;;;;;;;20.46;50.55;99414.34;5365088;26;20075;-81
2021/05/16 20:29:30;;;;;;;2.15;0.90;;;;;;;20.81;49.41;99405.00;5364832;26;20131;-82
2021/05/16 20:31:57;;;;;;;4.60;1.30;;;;;;;20.34;51.76;99407.97;5365108;26;20068;-81
2021/05/16 20:34:27;;;;;;;3.53;1.00;;;;;;;20.17;52.52;99408.97;5365007;26;20069;-82
2021/05/16 20:36:54;;;;;;;4.28;1.17;;;;;;;19.64;52.90;99411.22;5364836;26;20075;-83
2021/05/16 20:39:21;;;;;;;2.17;0.88;;;;;;;19.99;52.66;99402.97;5344876;26;20412;-82
2021/05/16 20:41:48;;;;;;;1.33;0.90;;;;;;;19.94;53.48;99407.72;5364735;26;20055;-82